WetterOnline ( http://www.wetteronline.de )

Wetter aktuell Stuttgart

Aktuelles Wetter: Schnarrenberg/Stuttgart (315m)

6-stündlich | Neueste Meldungen
Ortszeit Temperatur Wetter
Di, 25.09. 20:00 11.3° C wolkig
Di, 25.09. 14:00 14.0° C wolkenlos
Di, 25.09. 8:00 3.9° C wolkenlos
Di, 25.09. 2:00 7.7° C wolkenlos
Mo, 24.09. 20:00 11.2° C wolkenlos
Mo, 24.09. 14:00 12.8° C leicht bewölkt
Mo, 24.09. 8:00 7.8° C wolkenlos
Mo, 24.09. 2:00 9.2° C bewölkt
Ortszeit Temperatur Wetter
Di, 25.09. 23:00 8.0° C wolkenlos
Di, 25.09. 22:50 8.0° C wolkenlos
Di, 25.09. 22:40 8.0° C wolkenlos
Di, 25.09. 22:30 7.9° C wolkenlos
Di, 25.09. 22:20 7.9° C wolkenlos
Di, 25.09. 22:10 8.1° C fast wolkenlos
Di, 25.09. 22:00 8.4° C wolkig
Di, 25.09. 21:30 9.0° C wolkig
Di, 25.09. 21:00 9.9° C wolkig
Di, 25.09. 20:30 10.7° C wolkig
Di, 25.09. 20:00 11.3° C wolkig
Ortszeit Relative Feuchte Sichtweite
Di, 25.09. 20:00 47% >70 km
Di, 25.09. 14:00 39% 65 km
Di, 25.09. 8:00 95% 23 km
Di, 25.09. 2:00 77% 60 km
Mo, 24.09. 20:00 55% 65 km
Mo, 24.09. 14:00 47% 55 km
Mo, 24.09. 8:00 84% 50 km
Mo, 24.09. 2:00 81% 65 km
Ortszeit Relative Feuchte Sichtweite
Di, 25.09. 23:00 61% 65 km
Di, 25.09. 22:50 61% -
Di, 25.09. 22:40 62% -
Di, 25.09. 22:30 63% 55 km
Di, 25.09. 22:20 63% -
Di, 25.09. 22:10 61% -
Di, 25.09. 22:00 60% 65 km
Di, 25.09. 21:30 56% 65 km
Di, 25.09. 21:00 50% 4.0 km
Di, 25.09. 20:30 47% >70 km
Di, 25.09. 20:00 47% >70 km
Ortszeit Niederschlagsmenge Niederschlagsart
Di, 25.09. 20:00 0.0 l/m2 in 12 Std. -
Di, 25.09. 14:00 0.0 l/m2 in 6 Std. -
Di, 25.09. 8:00 0.0 l/m2 in 12 Std. -
Di, 25.09. 2:00 0.0 l/m2 in 6 Std. -
Mo, 24.09. 20:00 0.0 l/m2 in 12 Std. -
Mo, 24.09. 14:00 0.0 l/m2 in 6 Std. -
Mo, 24.09. 8:00 3 l/m2 in 12 Std. Regen
Mo, 24.09. 2:00 3 l/m2 in 6 Std. Regen
Ortszeit Niederschlagsmenge Niederschlagsart
Di, 25.09. 23:00 0.0 l/m2 in 1 Std. -
Di, 25.09. 22:50 keine Meldung -
Di, 25.09. 22:40 keine Meldung -
Di, 25.09. 22:30 0.0 l/m2 in 1 Std. -
Di, 25.09. 22:20 keine Meldung -
Di, 25.09. 22:10 keine Meldung -
Di, 25.09. 22:00 0.0 l/m2 in 1 Std. -
Di, 25.09. 21:30 0.0 l/m2 in 1 Std. -
Di, 25.09. 21:00 0.0 l/m2 in 1 Std. -
Di, 25.09. 20:30 0.0 l/m2 in 1 Std. -
Di, 25.09. 20:00 0.0 l/m2 in 1 Std. -
Ortszeit Stärke Spitze Richtung
km/h Bft. km/h Grad Sektor
Di, 25.09. 20:00 17 3 28 100° O
Di, 25.09. 14:00 13 3 35 60° NO
Di, 25.09. 8:00 4 1 11 70° O
Di, 25.09. 2:00 11 2 18 290° W
Mo, 24.09. 20:00 9 2 33 300° NW
Mo, 24.09. 14:00 17 3 33 310° NW
Mo, 24.09. 8:00 13 3 35 290° W
Mo, 24.09. 2:00 20 4 65 300° NW
Ortszeit Stärke Spitze Richtung
km/h Bft. km/h Grad Sektor
Di, 25.09. 23:00 14 3 18 110° O
Di, 25.09. 22:50 14 3 - 110° O
Di, 25.09. 22:40 14 3 - 110° O
Di, 25.09. 22:30 11 2 13 120° SO
Di, 25.09. 22:20 11 2 - 120° SO
Di, 25.09. 22:10 11 2 - 120° SO
Di, 25.09. 22:00 11 2 18 120° SO
Di, 25.09. 21:30 11 2 17 110° O
Di, 25.09. 21:00 14 3 25 100° O
Di, 25.09. 20:30 17 3 24 100° O
Di, 25.09. 20:00 17 3 28 100° O
Ortszeit Untergrenze Bedeckung Gattung
total tief tief mittel hoch
Di, 25.09. 20:00 9000 m 8/8 0/8 - - -
Di, 25.09. 14:00 - 0/8 0/8 - - -
Di, 25.09. 8:00 - 0/8 0/8 - - -
Di, 25.09. 2:00 - 0/8 0/8 - - -
Mo, 24.09. 20:00 - 0/8 0/8 - - -
Mo, 24.09. 14:00 1320 m 4/8 4/8 - - -
Mo, 24.09. 8:00 - 0/8 0/8 - - -
Mo, 24.09. 2:00 570 m 7/8 7/8 - - -
Ortszeit Bedeckungsgrad in Achtel und Wolkenuntergrenze
Di, 25.09. 23:00 keine Wolken
Di, 25.09. 22:50 keine Wolken
Di, 25.09. 22:40 keine Wolken
Di, 25.09. 22:30 keine Wolken
Di, 25.09. 22:20 keine Wolken
Di, 25.09. 22:10 2(9000m)
Di, 25.09. 22:00 7(9000m)
Di, 25.09. 21:30 7(9000m)
Di, 25.09. 21:00 8(9000m)
Di, 25.09. 20:30 8(9000m)
Di, 25.09. 20:00 8(9000m)
Ortszeit Luftdruck NN (hPa) Tendenz (hPa in 3 Std.)
Di, 25.09. 20:00 1037 - 0,3
Di, 25.09. 14:00 1038 - 0,6
Di, 25.09. 8:00 1039 + 0,8
Di, 25.09. 2:00 1037 + 1,2
Mo, 24.09. 20:00 1034 + 0,9
Mo, 24.09. 14:00 1034 0,0
Mo, 24.09. 8:00 1032 + 3,0
Mo, 24.09. 2:00 1026 + 5,9
Ortszeit Luftdruck NN (hPa) Tendenz (hPa in 3 Std.)
Di, 25.09. 23:00 1038 + 1,0
Di, 25.09. 22:50 1038 keine Meldung
Di, 25.09. 22:40 1038 keine Meldung
Di, 25.09. 22:30 1039 + 1,2
Di, 25.09. 22:20 1039 keine Meldung
Di, 25.09. 22:10 1039 keine Meldung
Di, 25.09. 22:00 1038 + 1,0
Di, 25.09. 21:30 1038 + 0,9
Di, 25.09. 21:00 1038 + 0,8
Di, 25.09. 20:30 1037 + 0,3
Di, 25.09. 20:00 1037 - 0,3
Ortszeit Schneehöhe (cm)
Di, 25.09. 20:00 -
Di, 25.09. 14:00 -
Di, 25.09. 8:00 -
Di, 25.09. 2:00 -
Mo, 24.09. 20:00 -
Mo, 24.09. 14:00 -
Mo, 24.09. 8:00 -
Mo, 24.09. 2:00 -
Ortszeit Schneehöhe (cm)
Di, 25.09. 23:00 -
Di, 25.09. 22:50 -
Di, 25.09. 22:40 -
Di, 25.09. 22:30 -
Di, 25.09. 22:20 -
Di, 25.09. 22:10 -
Di, 25.09. 22:00 -
Di, 25.09. 21:30 -
Di, 25.09. 21:00 -
Di, 25.09. 20:30 -
Di, 25.09. 20:00 -
Link zu dieser Seite / Seite empfehlen

Das Wetter in ...